Tiempo atmosférico en la estación meteorológica de Valmadrid, Zaragoza (535 m.)



Fecha
DESCASC
Temp. máxima en grados centígrados (hora)
DESCASC
Temp. mínima en grados centígrados (hora)
DESCASC
Temp. media en grados centígrados
DESCASC
Racha de viento máxima en m/sg (hora)
DESCASC
Velocidad máxima media en intervalos de 10 minutos(hora)
DESCASC
Precipitaciones diarias en mm
DESCASC
Precipitaciones de 00:00 a 06:00 en mm
DESCASC
Precipitaciones de 06:00 a 12:00 en mm
DESCASC
Precipitaciones de 12:00 a 18:00 en mm
DESCASC
Precipitaciones de 18:00 a 24:00 en mm
DESCASC
16-04-2019 20.7 (17:20) 7.8 (00:20) 14.3 11.39 (21:50) 7.22 (07:50) 0 0 0 0 0
15-04-2019 20.9 (15:10) 7.9 (23:59) 14.4 10.28 (14:40) 5.83 (14:40) 0 0 0 0 0
14-04-2019 23 (17:10) 9.9 (04:20) 16.4 11.67 (11:50) 8.33 (13:00) 0 0 0 0 0
13-04-2019 21 (17:00) 6.5 (00:00) 13.8 12.5 (01:50) 7.78 (02:00) 0 0 0 0 0
12-04-2019 16.5 (17:30) 6.5 (06:40) 11.5 16.67 (03:10) 11.39 (01:10) 0 0 0 0 0
11-04-2019 13.5 (14:50) 6.2 (00:00) 9.8 18.89 (13:10) 12.78 (12:10) 0 0 0 0 0
10-04-2019 14.6 (17:10) 6 (00:00) 10.3 16.67 (23:59) 11.11 (13:50) 0.4 0.4 0 0 0
09-04-2019 15.6 (14:50) 7.4 (00:00) 11.5 14.17 (21:20) 10 (21:20) 0.2 0 0 0 0.2
08-04-2019 17.3 (14:50) 7.2 (00:00) 12.2 11.39 (13:40) 6.67 (23:59) 1.8 1.2 0.4 0.2 0
07-04-2019 13.9 (17:10) 4.3 (00:00) 9.1 12.5 (02:50) 8.89 (13:00) 2.2 1 1.2 0 0
06-04-2019 12.9 (15:40) 4.5 (00:00) 8.7 15.28 (10:50) 7.5 (03:50) 3.4 0.4 0 0 3
05-04-2019 12.2 (13:00) 4.1 (00:00) 8.1 11.39 (22:30) 7.22 (22:40) 11.8 0 0 2.6 9.2
04-04-2019 14 (17:30) 0.6 (00:00) 7.3 9.72 (02:00) 6.67 (00:30) 0 0 0 0 0
03-04-2019 11.8 (00:20) 2.8 (20:40) 7.3 14.17 (19:10) 10 (19:10) 0.8 0 0 0.2 0.6
02-04-2019 17.7 (15:30) 8.3 (00:00) 13 9.17 (10:40) 6.39 (11:10) 0.2 0.2 0 0 0
01-04-2019 12.1 (16:10) 6.3 (00:00) 9.2 5.83 (15:30) 3.89 (16:20) 8.8 6.2 2 0 0.6
31-03-2019 10.5 (15:50) 3.1 (00:00) 6.8 5.83 (06:30) 3.89 (06:30) 5.4 0 0 0.2 5.2
30-03-2019 17.3 (16:50) 4.1 (00:00) 10.7 9.17 (12:50) 5 (13:10) 0 0 0 0 0
29-03-2019 18 (16:20) 0.5 (00:00) 9.3 12.22 (17:50) 6.94 (20:10) 0 0 0 0 0
28-03-2019 18.1 (16:10) 5.4 (00:00) 11.8 13.61 (01:10) 8.89 (00:20) 0 0 0 0 0
27-03-2019 18.4 (16:20) 4.1 (00:00) 11.2 16.11 (22:10) 12.22 (22:30) 0 0 0 0 0
26-03-2019 18.8 (16:20) 5.4 (00:00) 12.1 17.22 (00:20) 12.5 (23:20) 0 0 0 0 0
25-03-2019 15.3 (14:50) 6.4 (00:00) 10.9 19.44 (21:20) 13.06 (06:30) 0 0 0 0 0
24-03-2019 22.8 (14:20) 5 (00:00) 13.9 8.89 (23:20) 5.56 (23:20) 0 0 0 0 0
23-03-2019 20.9 (14:40) 3.3 (00:00) 12.1 8.61 (16:10) 4.44 (17:10) 0 0 0 0 0
22-03-2019 17.6 (15:50) 0.7 (00:00) 9.2 8.06 (16:30) 4.44 (13:20) 0 0 0 0 0
21-03-2019 15.5 (16:40) 2.4 (00:00) 9 11.39 (00:40) 6.39 (09:20) 0 0 0 0 0
20-03-2019 14.9 (16:10) 3.6 (00:00) 9.2 14.72 (01:00) 10.56 (01:00) 0 0 0 0 0
19-03-2019 13.1 (14:00) 4.8 (00:00) 9 18.33 (03:40) 13.33 (03:40) 0 0 0 0 0

Gráficas

Temp. máximas Temp. mínimas Temp. medias Precipitaciones Rachas de viento máximas Velocidades máximas media en intervalos de 10 minutos

Datos horarios

Fecha y hora oficial Temperatura (ºC) Velocidad del viento (km/h) Dirección del viento Racha (km/h) Dirección de racha Precipitación (mm) Presión (hPa) Tendencia (hPa) Humedad (%)
2019-04-17 23:00:00 11.4 8 Sudeste 18 Sudeste 0 -- -- 79
2019-04-17 22:00:00 12.4 10 Este 25 Nordeste 0 -- -- 75
2019-04-17 21:00:00 13.4 11 Este 27 Este 0 -- -- 71
2019-04-17 20:00:00 15.3 15 Este 30 Nordeste 0 -- -- 63
2019-04-17 19:00:00 17.1 16 Nordeste 39 Este 0 -- -- 54
2019-04-17 18:00:00 18.2 21 Este 37 Este 0 -- -- 50
2019-04-17 17:00:00 18.7 19 Este 35 Este 0 -- -- 50
2019-04-17 16:00:00 19.2 14 Este 39 Este 0 -- -- 47
2019-04-17 15:00:00 19.1 15 Este 41 Este 0 -- -- 46
2019-04-17 14:00:00 17.7 16 Este 30 Este 0 -- -- 51
2019-04-17 13:00:00 15.9 14 Este 31 Este 0 -- -- 58
2019-04-17 12:00:00 13.6 15 Este 28 Este 0 -- -- 68
2019-04-17 11:00:00 11.4 12 Este 21 Este 0 -- -- 76
2019-04-17 10:00:00 9.5 14 Este 25 Este 0 -- -- 85
2019-04-17 09:00:00 8.9 12 Este 23 Este 0 -- -- 89
2019-04-17 08:00:00 8.5 10 Este 23 Sudeste 0 -- -- 92
2019-04-17 07:00:00 8.7 7 Este 16 Este 0 -- -- 90
2019-04-17 06:00:00 8.3 5 Este 22 Este 0 -- -- 88
2019-04-17 05:00:00 8.8 7 Este 13 Este 0 -- -- 85
2019-04-17 04:00:00 8.8 7 Sudeste 15 Sudeste 0 -- -- 83
2019-04-17 03:00:00 8.9 5 Sudeste 23 Este 0 -- -- 79
2019-04-17 02:00:00 9.6 6 Este 28 Este 0 -- -- 74
2019-04-17 01:00:00 10.4 16 Este 27 Este 0 -- -- 72
2019-04-17 00:00:00 11.4 16 Este 30 Este 0 -- -- 68
2019-04-16 23:00:00 13 18 Este 33 Este 0 -- -- 61
2019-04-16 22:00:00 14.4 22 Este 41 Este 0 -- -- 61
2019-04-16 21:00:00 16.4 13 Este 28 Este 0 -- -- 45
2019-04-16 20:00:00 17.8 10 Este 31 Este 0 -- -- 37
2019-04-16 19:00:00 18.6 14 Este 29 Nordeste 0 -- -- 38
2019-04-16 18:00:00 19.6 16 Sudeste 24 Este 0 -- -- 38
2019-04-16 17:00:00 20.5 6 Nordeste 24 Este 0 -- -- 34
2019-04-16 16:00:00 19.7 8 Este 16 Este 0 -- -- 37
2019-04-16 15:00:00 18.6 7 Este 16 Noroeste 0 -- -- 41
2019-04-16 14:00:00 19 5 Nordeste 20 Noroeste 0 -- -- 45
2019-04-16 13:00:00 17.1 12 Noroeste 22 Norte 0 -- -- 51
2019-04-16 12:00:00 15.6 14 Noroeste 23 Oeste 0 -- -- 54
2019-04-16 11:00:00 13.9 13 Noroeste 31 Noroeste 0 -- -- 60
2019-04-16 10:00:00 12.6 18 Oeste 29 Oeste 0 -- -- 66
2019-04-16 09:00:00 11.1 14 Oeste 26 Oeste 0 -- -- 77
2019-04-16 08:00:00 9.5 25 Oeste 37 Oeste 0 -- -- 83
2019-04-16 07:00:00 9.1 4 Noroeste 32 Sudoeste 0 -- -- 90
2019-04-16 06:00:00 8.5 15 Oeste 23 Oeste 0 -- -- 93
2019-04-16 05:00:00 7.9 7 Oeste 20 Oeste 0 -- -- 89
2019-04-16 04:00:00 9.1 5 Sudoeste 10 Oeste 0 -- -- 84
2019-04-16 03:00:00 9 5 Oeste 10 Oeste 0 -- -- 85
2019-04-16 02:00:00 8.6 3 Sudeste 11 Noroeste 0 -- -- 85
2019-04-16 01:00:00 8.5 9 Noroeste 13 Noroeste 0 -- -- 86
2019-04-16 00:00:00 7.9 9 Noroeste 11 Noroeste 0 -- -- 89
2019-04-15 23:00:00 10.6 3 Sudoeste 15 Norte 0 -- -- 78
2019-04-15 22:00:00 12.4 6 Nordeste 27 Nordeste 0 -- -- 66
2019-04-15 21:00:00 13.5 14 Nordeste 29 Este 0 -- -- 62
2019-04-15 20:00:00 15.1 20 Este 34 Este 0 -- -- 57
2019-04-15 19:00:00 17.5 13 Nordeste 27 Nordeste 0 -- -- 53
2019-04-15 18:00:00 19.4 14 Nordeste 31 Nordeste 0 -- -- 49
2019-04-15 17:00:00 19.6 13 Nordeste 33 Este 0 -- -- 49
2019-04-15 16:00:00 20.6 17 Este 33 Este 0 -- -- 46
2019-04-15 15:00:00 20.4 20 Este 37 Este 0 -- -- 45
2019-04-15 14:00:00 19.9 18 Este 32 Este 0 -- -- 45
2019-04-15 13:00:00 17.7 15 Este 29 Este 0 -- -- 51
2019-04-15 12:00:00 16 12 Este 23 Este 0 -- -- 63
2019-04-15 11:00:00 15.5 11 Este 20 Este 0 -- -- 68
2019-04-15 10:00:00 14.8 10 Este 16 Este 0 -- -- 68
2019-04-15 09:00:00 13.3 11 Este 18 Este 0 -- -- 73
2019-04-15 08:00:00 11.9 10 Sudeste 19 Este 0 -- -- 82
2019-04-15 07:00:00 9.5 4 Sudoeste 15 Sudeste 0 -- -- 83
2019-04-15 06:00:00 10 11 Sudeste 14 Sudeste 0 -- -- 84
2019-04-15 05:00:00 11 9 Sudeste 13 Sudeste 0 -- -- 81
2019-04-15 04:00:00 12.3 7 Sudeste 28 Sudoeste 0 -- -- 77
2019-04-15 03:00:00 13.2 10 Sudoeste 24 Sudoeste 0 -- -- 75
2019-04-15 02:00:00 14.6 5 Sur 27 Nordeste 0 -- -- 68
2019-04-15 01:00:00 15.1 8 Noroeste 22 Noroeste 0 -- -- 66
2019-04-15 00:00:00 15.5 6 Oeste 27 Oeste 0 -- -- 64
2019-04-14 23:00:00 16 16 Oeste 27 Oeste 0 -- -- 61
2019-04-14 22:00:00 16.1 12 Sudoeste 21 Oeste 0 -- -- 61
2019-04-14 21:00:00 17.4 14 Noroeste 28 Noroeste 0 -- -- 56
2019-04-14 20:00:00 19.6 18 Noroeste 36 Noroeste 0 -- -- 47
2019-04-14 19:00:00 21.6 25 Noroeste 38 Noroeste 0 -- -- 39
2019-04-14 18:00:00 22.4 21 Noroeste 39 Oeste 0 -- -- 37
2019-04-14 17:00:00 22.8 22 Noroeste 34 Oeste 0 -- -- 35
2019-04-14 16:00:00 22.5 19 Noroeste 34 Noroeste 0 -- -- 35
2019-04-14 15:00:00 22.2 23 Oeste 39 Noroeste 0 -- -- 34
2019-04-14 14:00:00 21.1 26 Oeste 42 Oeste 0 -- -- 36
2019-04-14 13:00:00 19.6 30 Oeste 42 Oeste 0 -- -- 35
2019-04-14 12:00:00 19 26 Noroeste 42 Oeste 0 -- -- 36
2019-04-14 11:00:00 17.5 21 Oeste 35 Oeste 0 -- -- 36
2019-04-14 10:00:00 15.6 22 Oeste 33 Oeste 0 -- -- 39
2019-04-14 09:00:00 13.3 22 Oeste 34 Sudoeste 0 -- -- 37
2019-04-14 08:00:00 12.5 22 Oeste 30 Sudoeste 0 -- -- 34
2019-04-14 07:00:00 11.8 13 Oeste 26 Oeste 0 -- -- 31
2019-04-14 06:00:00 12.2 19 Sudoeste 29 Sudoeste 0 -- -- 27
2019-04-14 05:00:00 10 3 Este 16 Sudoeste 0 -- -- 30
2019-04-14 04:00:00 10.3 9 Sur 27 Sudoeste 0 -- -- 27
2019-04-14 03:00:00 12.1 19 Oeste 31 Sudoeste 0 -- -- 20
2019-04-14 02:00:00 13 17 Oeste 25 Sudoeste 0 -- -- 17
2019-04-14 01:00:00 10.4 7 Sudeste 13 Sudeste 0 -- -- 24
2019-04-14 00:00:00 11.1 7 Sudeste 15 Sur 0 -- -- 23
2019-04-13 23:00:00 10.4 10 Sudeste 13 Sudeste 0 -- -- 26
2019-04-13 22:00:00 10.5 9 Sudeste 14 Sudeste 0 -- -- 27
2019-04-13 21:00:00 11.7 9 Sudeste 13 Sudeste 0 -- -- 30
2019-04-13 20:00:00 16.3 5 Noroeste 12 Noroeste 0 -- -- 19
2019-04-13 19:00:00 20.6 7 Noroeste 22 Noroeste 0 -- -- 11
2019-04-13 18:00:00 20.4 15 Noroeste 29 Oeste 0 -- -- 11
2019-04-13 17:00:00 21 16 Oeste 33 Oeste 0 -- -- 14
2019-04-13 16:00:00 20.4 15 Oeste 28 Oeste 0 -- -- 14
2019-04-13 15:00:00 19 15 Oeste 25 Oeste 0 -- -- 18
2019-04-13 14:00:00 17.7 11 Sudoeste 24 Oeste 0 -- -- 18
2019-04-13 13:00:00 16.5 15 Oeste 28 Oeste 0 -- -- 19
2019-04-13 12:00:00 14.4 18 Oeste 29 Oeste 0 -- -- 24
2019-04-13 11:00:00 13.1 9 Noroeste 34 Oeste 0 -- -- 26
2019-04-13 10:00:00 11.3 16 Oeste 33 Sudoeste 0 -- -- 38
2019-04-13 09:00:00 9 19 Oeste 39 Oeste 0 -- -- 46
2019-04-13 08:00:00 7.2 21 Oeste 33 Oeste 0 -- -- 51
2019-04-13 07:00:00 7 18 Oeste 35 Oeste 0 -- -- 55
2019-04-13 06:00:00 6.5 17 Oeste 32 Oeste 0 -- -- 59
2019-04-13 05:00:00 6.8 22 Oeste 36 Oeste 0 -- -- 58
2019-04-13 04:00:00 7.1 22 Oeste 37 Oeste 0 -- -- 58
2019-04-13 03:00:00 7.5 26 Oeste 42 Oeste 0 -- -- 57
2019-04-13 02:00:00 7.8 28 Oeste 45 Oeste 0 -- -- 57
2019-04-13 01:00:00 8.1 25 Oeste 42 Oeste 0 -- -- 58
2019-04-13 00:00:00 8.6 24 Oeste 36 Noroeste 0 -- -- 57
2019-04-12 23:00:00 9.4 17 Oeste 48 Oeste 0 -- -- 54
2019-04-12 22:00:00 10.6 24 Oeste 38 Oeste 0 -- -- 51
2019-04-12 21:00:00 11.5 28 Oeste 45 Oeste 0 -- -- 48
2019-04-12 20:00:00 13 34 Oeste 48 Oeste 0 -- -- 41
2019-04-12 19:00:00 14.9 30 Oeste 45 Noroeste 0 -- -- 34
2019-04-12 18:00:00 15.8 30 Noroeste 50 Oeste 0 -- -- 34
2019-04-12 17:00:00 15.9 35 Oeste 48 Noroeste 0 -- -- 34
2019-04-12 16:00:00 15.7 35 Noroeste 49 Oeste 0 -- -- 36
2019-04-12 15:00:00 15.5 28 Noroeste 49 Oeste 0 -- -- 39
2019-04-12 14:00:00 14.5 31 Noroeste 46 Noroeste 0 -- -- 42
2019-04-12 13:00:00 13.2 30 Noroeste 48 Oeste 0 -- -- 50
2019-04-12 12:00:00 11.8 31 Noroeste 50 Noroeste 0 -- -- 56
2019-04-12 11:00:00 9.9 32 Oeste 51 Oeste 0 -- -- 62
2019-04-12 10:00:00 9.4 32 Oeste 47 Noroeste 0 -- -- 65
2019-04-12 09:00:00 8 29 Oeste 43 Oeste 0 -- -- 72
2019-04-12 08:00:00 6.7 27 Oeste 49 Oeste 0 -- -- 77
2019-04-12 07:00:00 6.6 32 Oeste 53 Oeste 0 -- -- 77
2019-04-12 06:00:00 6.6 31 Oeste 54 Oeste 0 -- -- 77
2019-04-12 05:00:00 6.8 32 Oeste 52 Oeste 0 -- -- 75
2019-04-12 04:00:00 6.8 31 Oeste 60 Oeste 0 -- -- 75
2019-04-12 03:00:00 7 33 Oeste 58 Oeste 0 -- -- 74
2019-04-12 02:00:00 7.1 35 Oeste 57 Oeste 0 -- -- 73
2019-04-12 01:00:00 7.2 37 Oeste 57 Oeste 0 -- -- 72
2019-04-12 00:00:00 7.5 36 Oeste 54 Oeste 0 -- -- 71
2019-04-11 23:00:00 8.1 34 Oeste 54 Oeste 0 -- -- 67
2019-04-11 22:00:00 8.4 32 Oeste 54 Oeste 0 -- -- 73
2019-04-11 21:00:00 8.9 32 Oeste 62 Oeste 0 -- -- 69
2019-04-11 20:00:00 10.5 42 Oeste 64 Noroeste 0 -- -- 62
2019-04-11 19:00:00 11.1 40 Noroeste 68 Oeste 0 -- -- 57
2019-04-11 18:00:00 11.5 40 Noroeste 62 Oeste 0 -- -- 57
2019-04-11 17:00:00 13.5 36 Noroeste 62 Oeste 0 -- -- 54
2019-04-11 16:00:00 12.7 39 Oeste 60 Oeste 0 -- -- 54
2019-04-11 15:00:00 13.5 39 Oeste 56 Noroeste 0 -- -- 51
2019-04-11 14:00:00 13.2 36 Noroeste 68 Noroeste 0 -- -- 54
2019-04-11 13:00:00 12.6 44 Noroeste 60 Oeste 0 -- -- 55
2019-04-11 12:00:00 11.4 45 Oeste 66 Noroeste 0 -- -- 55
2019-04-11 11:00:00 10.5 44 Oeste 62 Noroeste 0 -- -- 57
2019-04-11 10:00:00 9.1 41 Oeste 63 Oeste 0 -- -- 64
2019-04-11 09:00:00 7.7 38 Oeste 59 Oeste 0 -- -- 70
2019-04-11 08:00:00 6.5 42 Oeste 62 Oeste 0 -- -- 75
2019-04-11 07:00:00 6.5 33 Oeste 47 Oeste 0 -- -- 76
2019-04-11 06:00:00 6.2 23 Oeste 54 Oeste 0 -- -- 78
2019-04-11 05:00:00 6.6 36 Oeste 51 Oeste 0 -- -- 76
2019-04-11 04:00:00 6.8 33 Oeste 50 Oeste 0 -- -- 73
2019-04-11 03:00:00 7 32 Oeste 49 Oeste 0 -- -- 72
2019-04-11 02:00:00 7.3 33 Oeste 54 Oeste 0 -- -- 72
2019-04-11 01:00:00 7.6 36 Oeste 53 Oeste 0 -- -- 71
2019-04-11 00:00:00 7.8 36 Oeste 60 Oeste 0 -- -- 71
2019-04-10 23:00:00 8.3 32 Oeste 53 Noroeste 0 -- -- 70
2019-04-10 22:00:00 9.3 30 Oeste 44 Oeste 0 -- -- 66
2019-04-10 21:00:00 10.4 27 Noroeste 45 Oeste 0 -- -- 56
2019-04-10 20:00:00 11.8 32 Noroeste 48 Oeste 0 -- -- 52
2019-04-10 19:00:00 12.6 28 Noroeste 47 Oeste 0 -- -- 53
2019-04-10 18:00:00 14.4 28 Oeste 44 Oeste 0 -- -- 47
2019-04-10 17:00:00 14.4 30 Oeste 49 Oeste 0 -- -- 53
2019-04-10 16:00:00 13.8 33 Oeste 47 Noroeste 0 -- -- 57
2019-04-10 15:00:00 13.5 31 Noroeste 49 Oeste 0 -- -- 58
2019-04-10 14:00:00 12.8 38 Oeste 55 Oeste 0 -- -- 58
2019-04-10 13:00:00 10.8 35 Oeste 51 Oeste 0 -- -- 62
2019-04-10 12:00:00 9.1 31 Oeste 48 Noroeste 0 -- -- 68
2019-04-10 11:00:00 8.9 26 Oeste 39 Oeste 0 -- -- 67
2019-04-10 10:00:00 7.9 19 Oeste 36 Oeste 0 -- -- 73
2019-04-10 09:00:00 6.9 16 Oeste 30 Oeste 0 -- -- 76
2019-04-10 08:00:00 6.7 19 Oeste 31 Oeste 0 -- -- 75
2019-04-10 07:00:00 6.1 13 Oeste 26 Sudoeste 0 -- -- 78
2019-04-10 06:00:00 6.2 14 Oeste 31 Sudoeste 0 -- -- 77
2019-04-10 05:00:00 6.1 15 Oeste 35 Oeste 0 -- -- 79
2019-04-10 04:00:00 6.1 16 Oeste 32 Oeste 0 -- -- 83
2019-04-10 03:00:00 6.3 14 Oeste 27 Oeste 0 -- -- 84
2019-04-10 02:00:00 6.7 17 Oeste 43 Noroeste 0 -- -- 86
2019-04-10 01:00:00 6.8 15 Oeste 32 Oeste 0.4 -- -- 90
2019-04-10 00:00:00 7.4 17 Oeste 31 Noroeste 0.2 -- -- 87
2019-04-09 23:00:00 8.5 10 Oeste 31 Sudoeste 0 -- -- 72
2019-04-09 22:00:00 9.1 21 Oeste 51 Sudoeste 0 -- -- 68
2019-04-09 21:00:00 8.6 18 Sudoeste 40 Oeste 0 -- -- 72
2019-04-09 20:00:00 9.1 20 Sudoeste 47 Oeste 0 -- -- 67
2019-04-09 19:00:00 11.1 30 Sudoeste 49 Oeste 0 -- -- 58
2019-04-09 18:00:00 12.7 17 Sudoeste 45 Oeste 0 -- -- 48
2019-04-09 17:00:00 14.5 18 Oeste 39 Sudoeste 0 -- -- 40
2019-04-09 16:00:00 14.3 21 Sudoeste 35 Oeste 0 -- -- 43
2019-04-09 15:00:00 15.6 21 Oeste 38 Sudoeste 0 -- -- 42
2019-04-09 14:00:00 14.7 22 Sudoeste 45 Sudoeste 0 -- -- 41
2019-04-09 13:00:00 13.7 24 Oeste 44 Sudoeste 0 -- -- 48
2019-04-09 12:00:00 12.7 25 Oeste 45 Oeste 0 -- -- 53
2019-04-09 11:00:00 11.7 22 Oeste 48 Oeste 0 -- -- 56
2019-04-09 10:00:00 10.3 20 Oeste 41 Sudoeste 0 -- -- 61
2019-04-09 09:00:00 8.9 15 Sudoeste 33 Oeste 0 -- -- 66
2019-04-09 08:00:00 7.6 19 Sudoeste 42 Oeste 0 -- -- 72
2019-04-09 07:00:00 7.8 26 Sudoeste 40 Sudoeste 0 -- -- 72
2019-04-09 06:00:00 8.4 22 Sudoeste 36 Oeste 0 -- -- 69
2019-04-09 05:00:00 8.4 14 Sudoeste 37 Sudoeste 0 -- -- 68
2019-04-09 04:00:00 9.3 21 Sudoeste 41 Sudoeste 0 -- -- 63
2019-04-09 03:00:00 10.4 22 Sudoeste 33 Sudoeste 0 -- -- 57
2019-04-09 02:00:00 9.7 15 Sudoeste 32 Sudoeste 0 -- -- 66
2019-04-09 01:00:00 10.1 18 Sudoeste 29 Sur 0 -- -- 64
2019-04-09 00:00:00 10.2 24 Sudoeste 37 Sudoeste 0 -- -- 67
2019-04-08 23:00:00 7.8 7 Sudeste 10 Sudeste 0 -- -- 85
2019-04-08 22:00:00 8.3 4 Sudeste 9 Sudeste 0 -- -- 83
2019-04-08 21:00:00 10.5 3 Sudoeste 19 Sudoeste 0 -- -- 70
2019-04-08 20:00:00 13.6 12 Sudoeste 24 Oeste 0 -- -- 59
2019-04-08 19:00:00 13.9 12 Oeste 35 Sudoeste 0 -- -- 59
2019-04-08 18:00:00 14.4 14 Sudoeste 37 Oeste 0 -- -- 54
2019-04-08 17:00:00 16.4 12 Oeste 31 Oeste 0 -- -- 52
2019-04-08 16:00:00 16.5 10 Sudoeste 31 Sudoeste 0 -- -- 50
2019-04-08 15:00:00 16.5 14 Oeste 38 Oeste 0 -- -- 54
2019-04-08 14:00:00 15.9 19 Oeste 41 Oeste 0 -- -- 56
2019-04-08 13:00:00 14 17 Oeste 33 Oeste 0.2 -- -- 66
2019-04-08 12:00:00 12.3 9 Oeste 18 Sur 0 -- -- 73
2019-04-08 11:00:00 11.1 9 Sur 20 Sudoeste 0 -- -- 75
2019-04-08 10:00:00 9.9 6 Sudoeste 17 Sudoeste 0.2 -- -- 81
2019-04-08 09:00:00 9.7 7 Sur 14 Sudoeste 0 -- -- 80
2019-04-08 08:00:00 7.2 7 Sudeste 13 Sudeste 0 -- -- 90
2019-04-08 07:00:00 7.2 5 Sudeste 12 Sur 0.2 -- -- 89
2019-04-08 06:00:00 7.3 5 Sur 17 Sudoeste 0.2 -- -- 87
2019-04-08 05:00:00 7.8 10 Sur 25 Sur 0.8 -- -- 81
2019-04-08 04:00:00 7.8 12 Sudoeste 25 Sur 0.2 -- -- 81
2019-04-08 03:00:00 8.1 15 Sur 29 Sur 0 -- -- 79
2019-04-08 02:00:00 9.2 16 Sudoeste 33 Sudoeste 0 -- -- 67
2019-04-08 01:00:00 9.3 6 Sur 17 Sudoeste 0 -- -- 59
2019-04-08 00:00:00 8.2 5 Sur 11 Sudoeste 0 -- -- 60
2019-04-07 23:00:00 7.2 9 Sudeste 11 Sudeste 0 -- -- 71
2019-04-07 22:00:00 7.4 6 Sur 10 Sudoeste 0 -- -- 69
2019-04-07 21:00:00 10 6 Oeste 22 Oeste 0 -- -- 50
2019-04-07 20:00:00 11 15 Oeste 32 Oeste 0 -- -- 44
2019-04-07 19:00:00 13 14 Oeste 30 Oeste 0 -- -- 44
2019-04-07 18:00:00 12.9 18 Oeste 31 Sudoeste 0 -- -- 46
2019-04-07 17:00:00 13.6 20 Oeste 37 Sudoeste 0 -- -- 47
2019-04-07 16:00:00 12.9 21 Oeste 39 Oeste 0 -- -- 51
2019-04-07 15:00:00 12.6 23 Oeste 37 Oeste 0 -- -- 54
2019-04-07 14:00:00 9.9 25 Noroeste 41 Oeste 0 -- -- 59
2019-04-07 13:00:00 10.8 32 Oeste 43 Oeste 0 -- -- 59
2019-04-07 12:00:00 8.6 30 Oeste 42 Oeste 0 -- -- 61
2019-04-07 11:00:00 8.3 19 Oeste 35 Oeste 0 -- -- 65
2019-04-07 10:00:00 6.6 15 Oeste 24 Oeste 0 -- -- 77
2019-04-07 09:00:00 5.4 12 Oeste 33 Oeste 0 -- -- 87
2019-04-07 08:00:00 4.6 24 Oeste 37 Oeste 0.4 -- -- 89
2019-04-07 07:00:00 4.7 28 Oeste 41 Oeste 0.8 -- -- 85
2019-04-07 06:00:00 5.5 21 Oeste 33 Sudoeste 0 -- -- 81
2019-04-07 05:00:00 5.5 21 Sudoeste 33 Sudoeste 0 -- -- 78
2019-04-07 04:00:00 5.4 16 Oeste 40 Oeste 0 -- -- 79
2019-04-07 03:00:00 5.8 23 Oeste 45 Sudoeste 0 -- -- 78
2019-04-07 02:00:00 5.3 14 Sudoeste 34 Sudoeste 0.2 -- -- 81
2019-04-07 01:00:00 5.7 17 Sudoeste 40 Sudoeste 0.8 -- -- 83
2019-04-07 00:00:00 5.8 19 Sudoeste 37 Sudoeste 0 -- -- 77
2019-04-06 23:00:00 5.7 19 Sur 37 Sur 0.4 -- -- 81
2019-04-06 22:00:00 5.4 17 Sudoeste 39 Oeste 2 -- -- 84
2019-04-06 21:00:00 5.8 13 Oeste 28 Oeste 0.2 -- -- 81
2019-04-06 20:00:00 6.7 14 Oeste 18 Oeste 0 -- -- 82
2019-04-06 19:00:00 7.3 7 Oeste 29 Sudoeste 0.4 -- -- 83
2019-04-06 18:00:00 8.9 6 Sur 39 Sudoeste 0 -- -- 58
2019-04-06 17:00:00 10.5 12 Sur 28 Oeste 0 -- -- 52
2019-04-06 16:00:00 12.8 14 Oeste 30 Sudoeste 0 -- -- 44
2019-04-06 15:00:00 11.1 13 Oeste 29 Sudoeste 0 -- -- 49
2019-04-06 14:00:00 10.4 20 Sudoeste 37 Sudoeste 0 -- -- 48
2019-04-06 13:00:00 11.4 21 Oeste 43 Sudoeste 0 -- -- 45
2019-04-06 12:00:00 10 23 Oeste 51 Oeste 0 -- -- 51
2019-04-06 11:00:00 8.7 24 Oeste 55 Oeste 0 -- -- 54
2019-04-06 10:00:00 7.3 25 Oeste 48 Oeste 0 -- -- 62
2019-04-06 09:00:00 5.3 20 Oeste 35 Sudoeste 0 -- -- 72
2019-04-06 08:00:00 4.7 15 Sudoeste 33 Sudoeste 0 -- -- 74
2019-04-06 07:00:00 4.9 14 Sudoeste 31 Sudoeste 0 -- -- 74
2019-04-06 06:00:00 5.3 14 Sudoeste 34 Oeste 0 -- -- 73
2019-04-06 05:00:00 5.4 18 Oeste 39 Oeste 0 -- -- 73
2019-04-06 04:00:00 5 23 Oeste 53 Oeste 0.2 -- -- 78
2019-04-06 03:00:00 5 24 Oeste 41 Oeste 0 -- -- 77
2019-04-06 02:00:00 4.8 20 Oeste 38 Oeste 0 -- -- 81
2019-04-06 01:00:00 4.8 13 Sudoeste 30 Sudoeste 0.2 -- -- 88
2019-04-06 00:00:00 4.6 17 Oeste 35 Oeste 2.4 -- -- 92
2019-04-05 23:00:00 4.1 22 Sudoeste 41 Sudoeste 6.8 -- -- 90
2019-04-05 22:00:00 6.5 2 Noroeste 4 Sur 0 -- -- 96
2019-04-05 21:00:00 6.7 3 Sudeste 11 Noroeste 0 -- -- 95
2019-04-05 20:00:00 6.8 9 Norte 14 Norte 0 -- -- 96
2019-04-05 19:00:00 7 11 Norte 16 Norte 0 -- -- 95
2019-04-05 18:00:00 8.1 8 Noroeste 11 Norte 0.4 -- -- 91
2019-04-05 17:00:00 8.5 2 Oeste 10 Oeste 0.2 -- -- 85
2019-04-05 16:00:00 7.7 3 Sudoeste 32 Oeste 2 -- -- 86
2019-04-05 15:00:00 10.8 5 Sudeste 20 Este 0 -- -- 64
2019-04-05 14:00:00 11.8 11 Este 24 Este 0 -- -- 56
2019-04-05 13:00:00 12.2 11 Sudeste 21 Sudeste 0 -- -- 52
2019-04-05 12:00:00 11.3 14 Este 25 Este 0 -- -- 59
2019-04-05 11:00:00 10.4 9 Este 16 Sudeste 0 -- -- 58
2019-04-05 10:00:00 8 3 Sur 6 Sudeste 0 -- -- 66
2019-04-05 09:00:00 6.3 3 Sur 9 Sudoeste 0 -- -- 72
2019-04-05 08:00:00 5.7 0 Calma 6 Norte 0 -- -- 73
2019-04-05 07:00:00 6.1 2 Norte 17 Este 0 -- -- 70
2019-04-05 06:00:00 9.1 9 Sudeste 19 Sudeste 0 -- -- 62
2019-04-05 05:00:00 8.5 7 Sur 22 Sudeste 0 -- -- 59
2019-04-05 04:00:00 9.1 11 Sudeste 24 Sudeste 0 -- -- 49
2019-04-05 03:00:00 6.6 5 Sur 17 Sur 0 -- -- 52
2019-04-05 02:00:00 6.4 8 Sur 15 Sur 0 -- -- 53
2019-04-05 01:00:00 6.8 8 Sur 16 Sur 0 -- -- 49
2019-04-05 00:00:00 7.9 14 Sudeste 30 Sudeste 0 -- -- 42
2019-04-04 23:00:00 8 14 Sudeste 26 Sudeste 0 -- -- 45
2019-04-04 22:00:00 8.1 7 Sudeste 19 Este 0 -- -- 47
2019-04-04 21:00:00 9.3 15 Este 22 Este 0 -- -- 43
2019-04-04 20:00:00 11.1 10 Nordeste 18 Nordeste 0 -- -- 39
2019-04-04 19:00:00 12.7 3 Sudeste 22 Sudoeste 0 -- -- 28
2019-04-04 18:00:00 13.5 6 Sudoeste 29 Oeste 0 -- -- 27
2019-04-04 17:00:00 13.6 9 Sudoeste 22 Sudoeste 0 -- -- 33
2019-04-04 16:00:00 12.2 13 Sudoeste 27 Oeste 0 -- -- 35
2019-04-04 15:00:00 11.8 11 Oeste 29 Oeste 0 -- -- 35
2019-04-04 14:00:00 10.7 16 Oeste 28 Oeste 0 -- -- 36
2019-04-04 13:00:00 8.9 17 Oeste 32 Oeste 0 -- -- 41
2019-04-04 12:00:00 8.3 19 Oeste 29 Oeste 0 -- -- 44
2019-04-04 11:00:00 7.3 15 Oeste 29 Oeste 0 -- -- 53
2019-04-04 10:00:00 4.8 14 Oeste 23 Oeste 0 -- -- 61
2019-04-04 09:00:00 3.1 9 Oeste 20 Oeste 0 -- -- 69
2019-04-04 08:00:00 0.6 12 Oeste 24 Oeste 0 -- -- 79
2019-04-04 07:00:00 0.8 10 Oeste 22 Oeste 0 -- -- 74
2019-04-04 06:00:00 1.4 19 Oeste 28 Oeste 0 -- -- 71
2019-04-04 05:00:00 1 13 Oeste 20 Oeste 0 -- -- 73
2019-04-04 04:00:00 1.4 14 Oeste 21 Oeste 0 -- -- 72
2019-04-04 03:00:00 1.8 16 Oeste 31 Oeste 0 -- -- 71
2019-04-04 02:00:00 2.7 23 Oeste 35 Oeste 0 -- -- 67
2019-04-04 01:00:00 2.3 17 Oeste 33 Noroeste 0 -- -- 74
2019-04-04 00:00:00 3.2 17 Oeste 31 Noroeste 0 -- -- 74
2019-04-03 23:00:00 3.7 17 Oeste 29 Sudoeste 0 -- -- 82
2019-04-03 22:00:00 3.8 19 Sudoeste 28 Sudoeste 0 -- -- 83
2019-04-03 21:00:00 3.3 14 Oeste 32 Oeste 0.4 -- -- 84
2019-04-03 20:00:00 3.1 24 Oeste 51 Noroeste 0.2 -- -- 90
2019-04-03 19:00:00 6.4 33 Noroeste 45 Noroeste 0 -- -- 77
2019-04-03 18:00:00 7.6 18 Oeste 25 Oeste 0 -- -- 74
2019-04-03 17:00:00 6.7 11 Oeste 25 Noroeste 0.2 -- -- 81
2019-04-03 16:00:00 6.2 22 Noroeste 30 Oeste 0 -- -- 85
2019-04-03 15:00:00 6.5 18 Noroeste 29 Noroeste 0 -- -- 82
2019-04-03 14:00:00 7.1 18 Noroeste 30 Oeste 0 -- -- 81
2019-04-03 13:00:00 8.2 20 Noroeste 30 Noroeste 0 -- -- 75
2019-04-03 12:00:00 9.9 19 Noroeste 33 Noroeste 0 -- -- 69
2019-04-03 11:00:00 9.3 18 Oeste 31 Oeste 0 -- -- 75
2019-04-03 10:00:00 8.3 17 Oeste 25 Oeste 0 -- -- 77
2019-04-03 09:00:00 7.1 12 Oeste 19 Oeste 0 -- -- 82
2019-04-03 08:00:00 6.4 11 Oeste 18 Oeste 0 -- -- 86
2019-04-03 07:00:00 6.5 11 Oeste 26 Oeste 0 -- -- 85
2019-04-03 06:00:00 7.1 17 Oeste 28 Oeste 0 -- -- 83
2019-04-03 05:00:00 6.8 15 Oeste 25 Oeste 0 -- -- 84
2019-04-03 04:00:00 7.1 12 Oeste 22 Sudoeste 0 -- -- 83
2019-04-03 03:00:00 7.6 5 Sudeste 21 Oeste 0 -- -- 83
2019-04-03 02:00:00 -- 12 Oeste 33 Sudoeste 0 -- -- --
2019-04-03 01:00:00 10.7 24 Oeste 33 Oeste 0 -- -- 75
2019-04-03 00:00:00 11.5 17 Sudoeste 26 Sudoeste 0 -- -- 69
2019-04-02 23:00:00 12 13 Sudoeste 24 Sudoeste 0 -- -- 65
2019-04-02 22:00:00 12 8 Sudoeste 16 Sur 0 -- -- 67
2019-04-02 21:00:00 11.7 9 Sudoeste 17 Sudoeste 0 -- -- 66
2019-04-02 20:00:00 13.2 11 Sudoeste 26 Oeste 0 -- -- 58
2019-04-02 19:00:00 14.9 16 Oeste 30 Oeste 0 -- -- 52
2019-04-02 18:00:00 16 14 Oeste 29 Oeste 0 -- -- 44
2019-04-02 17:00:00 14.5 16 Oeste 31 Noroeste 0 -- -- 62
2019-04-02 16:00:00 16.5 14 Noroeste 28 Noroeste 0 -- -- 58
2019-04-02 15:00:00 16.1 16 Noroeste 28 Noroeste 0 -- -- 59
2019-04-02 14:00:00 15.3 15 Oeste 27 Oeste 0 -- -- 66
2019-04-02 13:00:00 13.4 14 Oeste 26 Oeste 0 -- -- 72
2019-04-02 12:00:00 12.8 15 Oeste 32 Oeste 0 -- -- 79
2019-04-02 11:00:00 10.8 22 Oeste 33 Oeste 0 -- -- 89
2019-04-02 10:00:00 9.8 18 Oeste 27 Oeste 0 -- -- 94
2019-04-02 09:00:00 9 15 Oeste 22 Oeste 0 -- -- 97
2019-04-02 08:00:00 9.2 4 Oeste 10 Oeste 0 -- -- 98
2019-04-02 07:00:00 8.8 5 Oeste 14 Sudoeste 0 -- -- 97
2019-04-02 06:00:00 9.1 4 Sur 12 Sudeste 0 -- -- 95
2019-04-02 05:00:00 9 6 Sudeste 9 Sudeste 0 -- -- 95
2019-04-02 04:00:00 8.8 0 Calma 10 Sudeste 0 -- -- 97
2019-04-02 03:00:00 9.5 4 Sur 7 Sur 0 -- -- 96
2019-04-02 02:00:00 9.5 4 Sudeste 6 Sudeste 0 -- -- 96
2019-04-02 01:00:00 9.2 3 Sudeste 9 Sudeste 0.2 -- -- 97
2019-04-02 00:00:00 9.3 0 Calma 6 Sudeste 0 -- -- 97
2019-04-01 23:00:00 10 2 Sudeste 4 Oeste 0 -- -- 96
2019-04-01 22:00:00 10.2 2 Noroeste 8 Sudeste 0 -- -- 95
2019-04-01 21:00:00 10.5 3 Este 12 Sur 0.4 -- -- 94
2019-04-01 20:00:00 10.9 5 Sur 12 Sur 0.2 -- -- 89
2019-04-01 19:00:00 11.3 5 Sudeste 11 Este 0 -- -- 82
2019-04-01 18:00:00 11.4 6 Este 17 Este 0 -- -- 81
2019-04-01 17:00:00 11.3 8 Sudeste 20 Este 0 -- -- 82
2019-04-01 16:00:00 11.8 9 Este 21 Este 0 -- -- 77
2019-04-01 15:00:00 11.5 9 Este 18 Este 0 -- -- 77
2019-04-01 14:00:00 10.7 12 Este 17 Este 0 -- -- 81
2019-04-01 13:00:00 10.1 11 Este 18 Este 0 -- -- 83
2019-04-01 12:00:00 9.5 10 Sudeste 15 Este 0 -- -- 85
2019-04-01 11:00:00 8.7 8 Sudeste 12 Sudeste 0 -- -- 88
2019-04-01 10:00:00 7.7 5 Sudeste 10 Sudeste 0 -- -- 93
2019-04-01 09:00:00 6.9 2 Nordeste 6 Sudeste 0.4 -- -- 95
2019-04-01 08:00:00 6.5 3 Sudeste 6 Sudeste 1 -- -- 93
2019-04-01 07:00:00 6.5 5 Sudeste 6 Sudeste 0.6 -- -- 92
2019-04-01 06:00:00 6.3 3 Sur 5 Sur 0.8 -- -- 95
2019-04-01 05:00:00 6.4 0 Calma 2 Este 0.8 -- -- 95
2019-04-01 04:00:00 6.5 0 Calma 4 Sur 1 -- -- 93
2019-04-01 03:00:00 6.8 4 Sur 8 Sur 1.2 -- -- 90
2019-04-01 02:00:00 7.3 3 Este 5 Oeste 1.4 -- -- 96
2019-04-01 01:00:00 7.5 3 Sur 6 Sur 1 -- -- 96
2019-04-01 00:00:00 7.5 0 Calma 4 Nordeste 0.8 -- -- 95
2019-03-31 23:00:00 7.6 2 Este 3 Oeste 0.6 -- -- 95
2019-03-31 22:00:00 7.5 0 Calma 6 Sudeste 1.4 -- -- 95
2019-03-31 21:00:00 7.6 2 Sudeste 5 Este 1.6 -- -- 94
2019-03-31 20:00:00 7.9 4 Sur 6 Sudoeste 0.6 -- -- 88
2019-03-31 19:00:00 8.2 2 Sudeste 10 Este 0.2 -- -- 83
2019-03-31 18:00:00 8.7 8 Este 12 Este 0.2 -- -- 77
2019-03-31 17:00:00 9.1 10 Sudeste 17 Sudeste 0 -- -- 74
2019-03-31 16:00:00 10.4 4 Este 13 Este 0 -- -- 60
2019-03-31 15:00:00 10 8 Este 17 Sudeste 0 -- -- 62
2019-03-31 14:00:00 9.1 9 Este 17 Sudeste 0 -- -- 72
2019-03-31 13:00:00 8.7 7 Norte 14 Norte 0 -- -- 75
2019-03-31 12:00:00 8.2 4 Norte 9 Norte 0 -- -- 79
2019-03-31 11:00:00 6.6 3 Noroeste 10 Noroeste 0 -- -- 88
2019-03-31 10:00:00 5.7 8 Norte 11 Norte 0 -- -- 91
2019-03-31 09:00:00 5.7 0 Calma 4 Sur 0 -- -- 90
2019-03-31 08:00:00 4.9 3 Sudeste 12 Sudeste 0 -- -- 92
2019-03-31 07:00:00 6.1 12 Sudeste 21 Sudeste 0 -- -- 91
2019-03-31 06:00:00 6.3 8 Sudeste 14 Este 0 -- -- 90
2019-03-31 05:00:00 3.2 0 Calma 5 Sudeste 0 -- -- 94
2019-03-31 03:00:00 6.3 10 Sudeste 18 Este 0 -- -- 84
2019-03-31 01:00:00 6.3 5 Sudeste 13 Sur 0 -- -- 81
2019-03-31 00:00:00 7.3 6 Sudeste 16 Sudeste 0 -- -- 74
2019-03-30 23:00:00 8.1 3 Sur 18 Este 0 -- -- 62
2019-03-30 22:00:00 9.7 17 Sudeste 27 Este 0 -- -- 54
2019-03-30 21:00:00 11.2 15 Este 29 Este 0 -- -- 49
2019-03-30 20:00:00 12.7 15 Este 25 Este 0 -- -- 41
2019-03-30 19:00:00 14.8 14 Este 26 Nordeste 0 -- -- 32
2019-03-30 18:00:00 16.6 10 Nordeste 25 Este 0 -- -- 26
2019-03-30 17:00:00 16.9 13 Este 27 Este 0 -- -- 26
2019-03-30 16:00:00 16.6 15 Este 28 Nordeste 0 -- -- 24
2019-03-30 15:00:00 16.9 14 Este 30 Este 0 -- -- 24
2019-03-30 14:00:00 15.7 16 Este 31 Este 0 -- -- 27
2019-03-30 13:00:00 14.4 17 Este 33 Este 0 -- -- 32
2019-03-30 12:00:00 13.4 15 Este 26 Este 0 -- -- 35
2019-03-30 11:00:00 12.4 14 Este 22 Este 0 -- -- 37
2019-03-30 10:00:00 11.3 7 Este 14 Este 0 -- -- 46
2019-03-30 09:00:00 9.5 3 Nordeste 6 Nordeste 0 -- -- 59
2019-03-30 08:00:00 6.1 3 Sudeste 13 Sudeste 0 -- -- 80
2019-03-30 07:00:00 4.2 5 Sur 14 Este 0 -- -- 90
2019-03-30 06:00:00 5.4 5 Sur 10 Sur 0 -- -- 91
2019-03-30 05:00:00 4.8 4 Sudeste 9 Sudeste 0 -- -- 89
2019-03-30 04:00:00 5.3 4 Sudoeste 15 Sudeste 0 -- -- 81
2019-03-30 03:00:00 5.6 5 Sur 10 Sudeste 0 -- -- 79
2019-03-30 02:00:00 6.1 3 Sur 13 Sudeste 0 -- -- 55
2019-03-30 01:00:00 6.7 6 Sur 14 Sur 0 -- -- 56
2019-03-30 00:00:00 6.9 6 Sudoeste 11 Sudeste 0 -- -- 57
2019-03-29 23:00:00 6.7 0 Calma 26 Este 0 -- -- 59
2019-03-29 22:00:00 10 18 Este 34 Este 0 -- -- 49
2019-03-29 21:00:00 11.5 19 Este 42 Este 0 -- -- 47
2019-03-29 20:00:00 12.7 23 Este 40 Este 0 -- -- 45
2019-03-29 19:00:00 14.2 21 Este 42 Este 0 -- -- 40
2019-03-29 18:00:00 16 22 Este 44 Este 0 -- -- 38
2019-03-29 17:00:00 17.3 19 Este 37 Este 0 -- -- 31
2019-03-29 16:00:00 17.7 19 Este 39 Este 0 -- -- 27
2019-03-29 15:00:00 17.7 19 Este 38 Este 0 -- -- 27
2019-03-29 14:00:00 17 18 Este 35 Este 0 -- -- 27
2019-03-29 13:00:00 16.3 13 Este 30 Este 0 -- -- 30
2019-03-29 12:00:00 14.7 13 Este 26 Sudeste 0 -- -- 35
2019-03-29 11:00:00 14.3 12 Este 18 Este 0 -- -- 38
2019-03-29 10:00:00 13.1 3 Norte 8 Este 0 -- -- 44
2019-03-29 09:00:00 10 4 Este 8 Sudeste 0 -- -- 51
2019-03-29 08:00:00 4.1 0 Calma 13 Sudeste 0 -- -- 71
2019-03-29 07:00:00 0.5 7 Sudeste 13 Sudeste 0 -- -- 81
2019-03-29 06:00:00 1.5 7 Sudeste 14 Sudeste 0 -- -- 78
2019-03-29 05:00:00 2.1 12 Sudeste 15 Sudeste 0 -- -- 76
2019-03-29 04:00:00 2.5 7 Sudeste 14 Sudeste 0 -- -- 75
2019-03-29 03:00:00 2.9 8 Sudeste 14 Sudeste 0 -- -- 74
2019-03-29 02:00:00 4.1 6 Sudeste 15 Sudeste 0 -- -- 69
2019-03-29 01:00:00 4.2 8 Sudeste 13 Sudeste 0 -- -- 66
2019-03-29 00:00:00 5.5 3 Nordeste 12 Sudeste 0 -- -- 59
2019-03-28 23:00:00 6.3 9 Sudeste 13 Sudeste 0 -- -- 56
2019-03-28 22:00:00 6.8 9 Sudeste 13 Sudeste 0 -- -- 52
2019-03-28 21:00:00 7.1 9 Sudeste 13 Sudeste 0 -- -- 50
2019-03-28 20:00:00 9.3 11 Sudeste 13 Sudeste 0 -- -- 44
2019-03-28 19:00:00 13.4 3 Noroeste 10 Noroeste 0 -- -- 35
2019-03-28 18:00:00 17 9 Noroeste 18 Norte 0 -- -- 27
2019-03-28 17:00:00 18 7 Noroeste 23 Oeste 0 -- -- 27
2019-03-28 16:00:00 17.8 10 Noroeste 23 Noroeste 0 -- -- 29
2019-03-28 15:00:00 16.7 12 Noroeste 27 Oeste 0 -- -- 32
2019-03-28 14:00:00 15.7 15 Noroeste 32 Noroeste 0 -- -- 35
2019-03-28 13:00:00 14.7 17 Noroeste 31 Noroeste 0 -- -- 40
2019-03-28 12:00:00 13.4 18 Oeste 33 Noroeste 0 -- -- 44
2019-03-28 11:00:00 11.4 19 Noroeste 35 Oeste 0 -- -- 50
2019-03-28 10:00:00 10.1 21 Oeste 38 Noroeste 0 -- -- 53
2019-03-28 09:00:00 8.7 18 Noroeste 31 Noroeste 0 -- -- 57
2019-03-28 08:00:00 7 8 Noroeste 24 Noroeste 0 -- -- 63
2019-03-28 07:00:00 5.7 10 Noroeste 41 Oeste 0 -- -- 68
2019-03-28 06:00:00 6.5 24 Oeste 41 Oeste 0 -- -- 64
2019-03-28 05:00:00 6.2 19 Oeste 37 Oeste 0 -- -- 63
2019-03-28 04:00:00 6.3 19 Oeste 35 Oeste 0 -- -- 62
2019-03-28 03:00:00 6.7 14 Noroeste 49 Oeste 0 -- -- 58
2019-03-28 02:00:00 7.2 31 Oeste 49 Oeste 0 -- -- 55
2019-03-28 01:00:00 7.6 29 Oeste 49 Noroeste 0 -- -- 50
2019-03-28 00:00:00 8.4 30 Oeste 49 Oeste 0 -- -- 44
2019-03-27 23:00:00 8.9 35 Oeste 58 Oeste 0 -- -- 41
2019-03-27 22:00:00 9.7 40 Oeste 54 Noroeste 0 -- -- 39
2019-03-27 21:00:00 11.1 27 Oeste 43 Oeste 0 -- -- 36
2019-03-27 20:00:00 12.6 17 Oeste 28 Oeste 0 -- -- 28
2019-03-27 19:00:00 13 9 Oeste 19 Noroeste 0 -- -- 25
2019-03-27 18:00:00 17.6 11 Noroeste 20 Noroeste 0 -- -- 18
2019-03-27 17:00:00 18 14 Noroeste 24 Oeste 0 -- -- 18
2019-03-27 16:00:00 17.6 15 Noroeste 25 Oeste 0 -- -- 21
2019-03-27 15:00:00 17.5 15 Oeste 29 Noroeste 0 -- -- 20
2019-03-27 14:00:00 16.7 17 Oeste 32 Oeste 0 -- -- 22
2019-03-27 13:00:00 15.3 20 Noroeste 29 Oeste 0 -- -- 28
2019-03-27 12:00:00 13.6 15 Oeste 30 Noroeste 0 -- -- 30
2019-03-27 11:00:00 11.7 18 Noroeste 31 Noroeste 0 -- -- 33
2019-03-27 10:00:00 9.9 23 Noroeste 32 Noroeste 0 -- -- 41
2019-03-27 09:00:00 7.9 14 Oeste 23 Noroeste 0 -- -- 57
2019-03-27 08:00:00 5.7 6 Oeste 13 Noroeste 0 -- -- 62
2019-03-27 07:00:00 4.5 4 Oeste 16 Noroeste 0 -- -- 62
2019-03-27 06:00:00 5 4 Sudeste 27 Oeste 0 -- -- 54
2019-03-27 05:00:00 5.6 15 Oeste 40 Oeste 0 -- -- 50
2019-03-27 04:00:00 6.4 25 Oeste 53 Oeste 0 -- -- 47
2019-03-27 03:00:00 6.8 29 Oeste 46 Noroeste 0 -- -- 46
2019-03-27 02:00:00 6.9 23 Oeste 41 Oeste 0 -- -- 46
2019-03-27 01:00:00 7.5 29 Oeste 55 Oeste 0 -- -- 44
2019-03-27 00:00:00 8.2 40 Oeste 61 Noroeste 0 -- -- 41
2019-03-26 23:00:00 8.4 31 Oeste 60 Noroeste 0 -- -- 40
2019-03-26 22:00:00 9.4 41 Oeste 60 Oeste 0 -- -- 38
2019-03-26 21:00:00 10.4 35 Oeste 51 Oeste 0 -- -- 35
2019-03-26 20:00:00 12.4 28 Oeste 39 Oeste 0 -- -- 27
2019-03-26 19:00:00 14.2 14 Oeste 25 Oeste 0 -- -- 19
2019-03-26 18:00:00 17.8 15 Noroeste 28 Noroeste 0 -- -- 15
2019-03-26 17:00:00 18.1 15 Noroeste 26 Noroeste 0 -- -- 15
2019-03-26 16:00:00 18 14 Noroeste 26 Noroeste 0 -- -- 19
2019-03-26 15:00:00 17.6 11 Noroeste 26 Oeste 0 -- -- 21
2019-03-26 14:00:00 16.5 16 Noroeste 32 Oeste 0 -- -- 25
2019-03-26 13:00:00 14.9 20 Oeste 31 Noroeste 0 -- -- 29
2019-03-26 12:00:00 13.6 17 Oeste 29 Noroeste 0 -- -- 34
2019-03-26 11:00:00 11.5 21 Oeste 37 Noroeste 0 -- -- 39
2019-03-26 10:00:00 9.5 23 Oeste 37 Noroeste 0 -- -- 45
2019-03-26 09:00:00 7.6 26 Oeste 41 Oeste 0 -- -- 53
2019-03-26 08:00:00 6.3 21 Oeste 38 Oeste 0 -- -- 60
2019-03-26 07:00:00 5.4 24 Oeste 48 Oeste 0 -- -- 63
2019-03-26 06:00:00 5.9 27 Oeste 54 Oeste 0 -- -- 63
2019-03-26 05:00:00 6.4 32 Oeste 54 Oeste 0 -- -- 62
2019-03-26 04:00:00 6.5 34 Oeste 57 Noroeste 0 -- -- 64
2019-03-26 03:00:00 6.7 33 Oeste 58 Oeste 0 -- -- 65
2019-03-26 02:00:00 6.9 39 Oeste 59 Oeste 0 -- -- 65
2019-03-26 01:00:00 6.4 32 Oeste 62 Oeste 0 -- -- 66
2019-03-26 00:00:00 6.4 39 Oeste 64 Oeste 0 -- -- 63
2019-03-25 23:00:00 7 44 Oeste 63 Oeste 0 -- -- 60
2019-03-25 22:00:00 7.6 42 Oeste 70 Oeste 0 -- -- 61
2019-03-25 21:00:00 8.2 35 Oeste 59 Oeste 0 -- -- 58
2019-03-25 20:00:00 9.3 32 Noroeste 60 Oeste 0 -- -- 52
2019-03-25 19:00:00 10.9 27 Noroeste 55 Noroeste 0 -- -- 45
2019-03-25 18:00:00 13.4 33 Noroeste 62 Oeste 0 -- -- 35
2019-03-25 17:00:00 14.5 39 Oeste 62 Oeste 0 -- -- 34
2019-03-25 16:00:00 15 32 Noroeste 53 Noroeste 0 -- -- 33
2019-03-25 15:00:00 15.1 30 Noroeste 55 Oeste 0 -- -- 36
2019-03-25 14:00:00 15 36 Noroeste 52 Noroeste 0 -- -- 39
2019-03-25 13:00:00 14.5 35 Noroeste 55 Oeste 0 -- -- 38
2019-03-25 12:00:00 13.8 33 Noroeste 58 Noroeste 0 -- -- 46
2019-03-25 11:00:00 12.7 32 Noroeste 56 Noroeste 0 -- -- 50
2019-03-25 10:00:00 11.4 35 Noroeste 57 Noroeste 0 -- -- 57
2019-03-25 09:00:00 10.1 33 Oeste 63 Oeste 0 -- -- 62
2019-03-25 08:00:00 8.8 46 Oeste 64 Oeste 0 -- -- 65
2019-03-25 07:00:00 9 45 Oeste 64 Oeste 0 -- -- 57
2019-03-25 06:00:00 10.2 39 Oeste 58 Oeste 0 -- -- 47
2019-03-25 05:00:00 10.8 38 Oeste 58 Oeste 0 -- -- 44
2019-03-25 04:00:00 11 35 Oeste 54 Oeste 0 -- -- 44
2019-03-25 03:00:00 11.2 32 Oeste 54 Oeste 0 -- -- 43
2019-03-25 02:00:00 11.5 29 Oeste 57 Oeste 0 -- -- 44
2019-03-25 01:00:00 12 35 Oeste 54 Oeste 0 -- -- 47
2019-03-25 00:00:00 11.8 20 Oeste 32 Oeste 0 -- -- 50
2019-03-24 23:00:00 13 13 Oeste 28 Oeste 0 -- -- 43
2019-03-24 22:00:00 14.7 17 Oeste 25 Oeste 0 -- -- 31
2019-03-24 21:00:00 13.9 11 Oeste 20 Oeste 0 -- -- 33
2019-03-24 20:00:00 13.2 10 Sudeste 12 Sudeste 0 -- -- 36
2019-03-24 19:00:00 16.2 6 Oeste 16 Noroeste 0 -- -- 30
2019-03-24 18:00:00 20.7 11 Noroeste 24 Noroeste 0 -- -- 20
2019-03-24 17:00:00 21.6 17 Noroeste 25 Noroeste 0 -- -- 21
2019-03-24 16:00:00 22.2 12 Noroeste 22 Norte 0 -- -- 20
2019-03-24 15:00:00 22.1 9 Norte 23 Norte 0 -- -- 21
2019-03-24 14:00:00 21.5 9 Norte 17 Nordeste 0 -- -- 22
2019-03-24 13:00:00 21.2 7 Norte 21 Norte 0 -- -- 25
2019-03-24 12:00:00 20.8 4 Oeste 10 Sudoeste 0 -- -- 24
2019-03-24 11:00:00 18.7 6 Oeste 12 Noroeste 0 -- -- 30
2019-03-24 10:00:00 16.1 9 Oeste 15 Oeste 0 -- -- 35
2019-03-24 09:00:00 13.8 9 Oeste 14 Sudoeste 0 -- -- 38
2019-03-24 08:00:00 9.1 9 Sudeste 15 Sudeste 0 -- -- 48
2019-03-24 07:00:00 5 10 Sudeste 14 Sudeste 0 -- -- 62
2019-03-24 06:00:00 5.2 5 Sudeste 12 Sudeste 0 -- -- 61
2019-03-24 05:00:00 7.3 7 Sudeste 12 Sudeste 0 -- -- 53
2019-03-24 04:00:00 8 9 Sudeste 14 Sudeste 0 -- -- 51
2019-03-24 03:00:00 8.3 6 Sudeste 13 Sudeste 0 -- -- 51
2019-03-24 02:00:00 9.2 9 Sudeste 14 Sudeste 0 -- -- 49
2019-03-24 01:00:00 9.1 10 Sudeste 13 Sudeste 0 -- -- 48
2019-03-24 00:00:00 8.8 7 Sudeste 9 Sudeste 0 -- -- 47
2019-03-23 23:00:00 9.3 3 Sudeste 9 Sudeste 0 -- -- 44
2019-03-23 22:00:00 9.3 4 Sur 9 Sudeste 0 -- -- 42
2019-03-23 21:00:00 9.4 6 Sudeste 14 Sudeste 0 -- -- 42
2019-03-23 20:00:00 12.9 5 Sur 11 Este 0 -- -- 34
2019-03-23 19:00:00 17 6 Este 21 Este 0 -- -- 26
2019-03-23 18:00:00 18.9 14 Este 29 Este 0 -- -- 24
2019-03-23 17:00:00 20.6 9 Nordeste 31 Este 0 -- -- 23
2019-03-23 16:00:00 20.1 14 Este 27 Este 0 -- -- 24
2019-03-23 15:00:00 20 13 Este 24 Este 0 -- -- 27
2019-03-23 14:00:00 20.3 8 Nordeste 18 Norte 0 -- -- 28
2019-03-23 13:00:00 18.9 10 Norte 18 Norte 0 -- -- 31
2019-03-23 12:00:00 18.6 7 Norte 23 Nordeste 0 -- -- 31
2019-03-23 11:00:00 16.9 6 Norte 14 Norte 0 -- -- 33
2019-03-23 10:00:00 15.5 5 Noroeste 11 Oeste 0 -- -- 39
2019-03-23 09:00:00 13 2 Nordeste 12 Sudeste 0 -- -- 45
2019-03-23 08:00:00 6.4 8 Sudeste 14 Sudeste 0 -- -- 66
2019-03-23 07:00:00 3.4 11 Sudeste 14 Sudeste 0 -- -- 75
2019-03-23 06:00:00 3.7 6 Sudeste 14 Sudeste 0 -- -- 73
2019-03-23 05:00:00 4.3 8 Sudeste 15 Sudeste 0 -- -- 71
2019-03-23 04:00:00 4.4 9 Sudeste 15 Sudeste 0 -- -- 71
2019-03-23 03:00:00 4.4 10 Sudeste 14 Sudeste 0 -- -- 70
2019-03-23 02:00:00 5.1 11 Sudeste 14 Sudeste 0 -- -- 67
2019-03-23 01:00:00 6 4 Sudeste 15 Sudeste 0 -- -- 64
2019-03-23 00:00:00 6.1 12 Sudeste 19 Sudeste 0 -- -- 63
2019-03-22 23:00:00 7.1 5 Sudeste 16 Sudeste 0 -- -- 59
2019-03-22 22:00:00 7 9 Sudeste 17 Sudeste 0 -- -- 59
2019-03-22 21:00:00 8.1 12 Sudeste 15 Sudeste 0 -- -- 54
2019-03-22 20:00:00 10.8 5 Sur 9 Sudeste 0 -- -- 46
2019-03-22 19:00:00 14.6 8 Este 18 Este 0 -- -- 38
2019-03-22 18:00:00 16.3 10 Este 24 Este 0 -- -- 33
2019-03-22 17:00:00 17 13 Este 29 Este 0 -- -- 30
2019-03-22 16:00:00 17.3 8 Este 26 Nordeste 0 -- -- 26
2019-03-22 15:00:00 16.7 14 Este 27 Sudeste 0 -- -- 28
2019-03-22 14:00:00 16.3 9 Este 27 Este 0 -- -- 26
2019-03-22 13:00:00 15.9 13 Este 23 Este 0 -- -- 23
2019-03-22 12:00:00 15.1 8 Norte 18 Nordeste 0 -- -- 26
2019-03-22 11:00:00 14.1 9 Norte 14 Norte 0 -- -- 27
2019-03-22 10:00:00 13.4 6 Norte 10 Norte 0 -- -- 27
2019-03-22 09:00:00 10.9 0 Calma 8 Sudeste 0 -- -- 33
2019-03-22 08:00:00 3.1 4 Sudeste 16 Sudeste 0 -- -- 54
2019-03-22 07:00:00 0.9 10 Sudeste 15 Sudeste 0 -- -- 57
2019-03-22 06:00:00 0.9 2 Sur 13 Sudeste 0 -- -- 57
2019-03-22 05:00:00 1.1 12 Sudeste 14 Sudeste 0 -- -- 56
2019-03-22 04:00:00 1 8 Sudeste 12 Sudeste 0 -- -- 55
2019-03-22 03:00:00 2.1 7 Sudeste 12 Sudeste 0 -- -- 50
2019-03-22 02:00:00 1.6 5 Sudeste 14 Sudeste 0 -- -- 51
2019-03-22 01:00:00 2.1 8 Sudeste 13 Sudeste 0 -- -- 50
2019-03-22 00:00:00 2.6 10 Sudeste 12 Sudeste 0 -- -- 48
2019-03-21 23:00:00 3.1 5 Sudeste 9 Sudeste 0 -- -- 46
2019-03-21 22:00:00 3.4 8 Sudeste 12 Sudeste 0 -- -- 44
2019-03-21 21:00:00 4.4 5 Sudeste 12 Sudeste 0 -- -- 40
2019-03-21 20:00:00 6.8 9 Sudeste 11 Sudeste 0 -- -- 34
2019-03-21 19:00:00 12.2 7 Este 18 Este 0 -- -- 23
2019-03-21 18:00:00 14.2 10 Este 19 Este 0 -- -- 26
2019-03-21 17:00:00 15.2 7 Este 21 Sudeste 0 -- -- 26
2019-03-21 16:00:00 15.1 6 Nordeste 25 Norte 0 -- -- 23
2019-03-21 15:00:00 14 5 Sur 17 Norte 0 -- -- 32
2019-03-21 14:00:00 15 6 Nordeste 15 Sur 0 -- -- 34
2019-03-21 13:00:00 13.5 6 Oeste 22 Sudoeste 0 -- -- 34
2019-03-21 12:00:00 11.7 13 Oeste 25 Noroeste 0 -- -- 41
2019-03-21 11:00:00 10 15 Oeste 27 Noroeste 0 -- -- 46
2019-03-21 10:00:00 8 17 Oeste 34 Oeste 0 -- -- 51
2019-03-21 09:00:00 6.3 19 Oeste 30 Oeste 0 -- -- 55
2019-03-21 08:00:00 4.8 19 Oeste 35 Oeste 0 -- -- 61
2019-03-21 07:00:00 3.5 4 Oeste 16 Oeste 0 -- -- 66
2019-03-21 06:00:00 4.2 10 Oeste 25 Noroeste 0 -- -- 65
2019-03-21 05:00:00 4.6 13 Oeste 36 Noroeste 0 -- -- 65
2019-03-21 04:00:00 4.5 13 Noroeste 25 Oeste 0 -- -- 67
2019-03-21 03:00:00 4.4 6 Noroeste 19 Noroeste 0 -- -- 68
2019-03-21 02:00:00 5.2 6 Nordeste 24 Oeste 0 -- -- 63
2019-03-21 01:00:00 5.4 17 Noroeste 41 Oeste 0 -- -- 61
2019-03-21 00:00:00 5.4 15 Oeste 35 Sudoeste 0 -- -- 60
2019-03-20 23:00:00 6.1 21 Oeste 44 Oeste 0 -- -- 58
2019-03-20 22:00:00 7.2 30 Oeste 44 Oeste 0 -- -- 53
2019-03-20 21:00:00 8.3 23 Oeste 33 Oeste 0 -- -- 44
2019-03-20 20:00:00 8.4 12 Oeste 21 Noroeste 0 -- -- 38
2019-03-20 19:00:00 9.3 10 Oeste 19 Oeste 0 -- -- 35
2019-03-20 18:00:00 13.8 12 Oeste 24 Noroeste 0 -- -- 27
2019-03-20 17:00:00 14.5 13 Noroeste 24 Oeste 0 -- -- 27
2019-03-20 16:00:00 14.7 13 Noroeste 27 Noroeste 0 -- -- 23
2019-03-20 15:00:00 14.2 16 Noroeste 41 Oeste 0 -- -- 29
2019-03-20 14:00:00 13.7 14 Oeste 30 Noroeste 0 -- -- 32
2019-03-20 13:00:00 12.3 21 Oeste 32 Oeste 0 -- -- 37
2019-03-20 12:00:00 11.3 19 Oeste 35 Oeste 0 -- -- 41
2019-03-20 11:00:00 10.2 21 Noroeste 35 Noroeste 0 -- -- 46
2019-03-20 10:00:00 8.3 25 Oeste 36 Oeste 0 -- -- 54
2019-03-20 09:00:00 6.4 19 Oeste 31 Oeste 0 -- -- 64
2019-03-20 08:00:00 4.4 17 Oeste 32 Oeste 0 -- -- 72
2019-03-20 07:00:00 3.7 15 Oeste 39 Oeste 0 -- -- 74
2019-03-20 06:00:00 3.8 17 Oeste 45 Noroeste 0 -- -- 75
2019-03-20 05:00:00 4.4 30 Oeste 44 Oeste 0 -- -- 73
2019-03-20 04:00:00 4.5 31 Oeste 50 Oeste 0 -- -- 73
2019-03-20 03:00:00 4.7 35 Oeste 49 Oeste 0 -- -- 72
2019-03-20 02:00:00 5.1 33 Oeste 53 Oeste 0 -- -- 70
2019-03-20 01:00:00 4.8 38 Oeste 53 Oeste 0 -- -- 69
2019-03-20 00:00:00 5 35 Oeste 52 Oeste 0 -- -- 68
2019-03-19 23:00:00 5.2 35 Oeste 59 Oeste 0 -- -- 67
2019-03-19 22:00:00 5.6 33 Oeste 52 Oeste 0 -- -- 65
2019-03-19 21:00:00 6.3 37 Oeste 54 Oeste 0 -- -- 58
2019-03-19 20:00:00 6.8 32 Oeste 51 Oeste 0 -- -- 58
2019-03-19 19:00:00 8.1 32 Noroeste 56 Oeste 0 -- -- 49
2019-03-19 18:00:00 10.1 39 Noroeste 58 Oeste 0 -- -- 44
2019-03-19 17:00:00 11.3 39 Noroeste 57 Oeste 0 -- -- 42
2019-03-19 16:00:00 12.4 36 Noroeste 56 Oeste 0 -- -- 38
2019-03-19 15:00:00 12.6 37 Noroeste 51 Oeste 0 -- -- 38
2019-03-19 14:00:00 13.1 33 Noroeste 50 Noroeste 0 -- -- 40
2019-03-19 13:00:00 11 30 Noroeste 50 Oeste 0 -- -- 51
2019-03-19 12:00:00 11 33 Noroeste 55 Noroeste 0 -- -- 53
2019-03-19 11:00:00 9.3 36 Noroeste 57 Oeste 0 -- -- 59
2019-03-19 10:00:00 8.1 39 Oeste 62 Oeste 0 -- -- 62
2019-03-19 09:00:00 6.7 41 Oeste 62 Oeste 0 -- -- 68
2019-03-19 08:00:00 5.5 38 Oeste 65 Oeste 0 -- -- 72
2019-03-19 07:00:00 4.8 37 Oeste 60 Oeste 0 -- -- 75
2019-03-19 06:00:00 5.1 40 Oeste 64 Oeste 0 -- -- 73
2019-03-19 05:00:00 5.6 42 Oeste 59 Oeste 0 -- -- 71
2019-03-19 04:00:00 5.8 41 Oeste 66 Oeste 0 -- -- 69
2019-03-19 03:00:00 5.9 36 Oeste 53 Noroeste 0 -- -- 69
2019-03-19 02:00:00 5.6 28 Oeste 56 Oeste 0 -- -- 72
2019-03-19 01:00:00 5.7 35 Oeste 63 Oeste 0 -- -- 67
2019-03-19 00:00:00 5.9 41 Oeste 64 Oeste 0 -- -- 64